createdAt,value
2023-04-27T00:00:08.629Z,1005.98
2023-04-27T00:01:09.631Z,1005.95
2023-04-27T00:02:08.669Z,1005.95
2023-04-27T00:03:08.858Z,1005.95
2023-04-27T00:04:08.770Z,1006.00
2023-04-27T00:05:08.743Z,1006.03
2023-04-27T00:06:08.628Z,1005.95
2023-04-27T00:07:08.565Z,1006.01
2023-04-27T00:08:08.556Z,1005.97
2023-04-27T00:09:08.520Z,1005.95
2023-04-27T00:10:08.509Z,1006.01
2023-04-27T00:11:08.499Z,1006.02
2023-04-27T00:12:08.551Z,1005.94
2023-04-27T00:13:08.491Z,1005.94
2023-04-27T00:14:09.485Z,1005.95
2023-04-27T00:15:09.485Z,1006.00
2023-04-27T00:16:08.473Z,1005.90
2023-04-27T00:17:08.451Z,1005.88
2023-04-27T00:18:08.441Z,1005.95
2023-04-27T00:19:09.410Z,1005.90
2023-04-27T00:20:09.416Z,1005.94
2023-04-27T00:21:08.427Z,1005.89
2023-04-27T00:22:08.379Z,1005.92
2023-04-27T00:23:09.380Z,1005.95
2023-04-27T00:24:09.372Z,1005.94
2023-04-27T00:25:08.355Z,1005.90
2023-04-27T00:26:08.334Z,1005.93
2023-04-27T00:27:08.331Z,1005.86
2023-04-27T00:28:08.337Z,1005.84
2023-04-27T00:29:08.290Z,1005.88
2023-04-27T00:30:08.288Z,1005.87
2023-04-27T00:31:08.309Z,1005.87
2023-04-27T00:32:09.335Z,1005.88
2023-04-27T00:33:08.319Z,1005.91
2023-04-27T00:34:08.383Z,1005.91
2023-04-27T00:35:08.239Z,1005.87
2023-04-27T00:36:09.285Z,1005.86
2023-04-27T00:37:08.243Z,1005.87
2023-04-27T00:38:08.206Z,1005.86
2023-04-27T00:39:08.193Z,1005.87
2023-04-27T00:40:08.204Z,1005.86
2023-04-27T00:41:08.166Z,1005.86
2023-04-27T00:42:09.193Z,1005.89
2023-04-27T00:43:08.170Z,1005.87
2023-04-27T00:44:08.151Z,1005.87
2023-04-27T00:45:08.127Z,1005.85
2023-04-27T00:46:08.195Z,1005.88
2023-04-27T00:47:08.093Z,1005.82
2023-04-27T00:48:08.186Z,1005.82
2023-04-27T00:49:08.116Z,1005.94
2023-04-27T00:50:08.054Z,1005.91
2023-04-27T00:51:08.052Z,1005.86
2023-04-27T00:52:09.093Z,1005.85
2023-04-27T00:53:08.044Z,1005.85
2023-04-27T00:54:08.044Z,1005.87
2023-04-27T00:55:08.046Z,1005.93
2023-04-27T00:56:08.030Z,1005.90
2023-04-27T00:57:09.025Z,1005.92
2023-04-27T00:58:07.980Z,1005.91
2023-04-27T00:59:07.966Z,1005.91
2023-04-27T01:00:09.004Z,1005.93
2023-04-27T01:01:07.953Z,1005.91
2023-04-27T01:02:07.990Z,1005.90
2023-04-27T01:03:08.037Z,1005.86
2023-04-27T01:04:08.166Z,1005.96
2023-04-27T01:05:07.905Z,1005.86
2023-04-27T01:06:07.896Z,1005.89
2023-04-27T01:07:07.885Z,1005.90
2023-04-27T01:08:07.889Z,1005.93
2023-04-27T01:09:07.884Z,1006.00
2023-04-27T01:10:07.865Z,1005.95
2023-04-27T01:11:07.847Z,1005.99
2023-04-27T01:12:07.873Z,1005.97
2023-04-27T01:13:07.797Z,1006.04
2023-04-27T01:14:07.817Z,1006.09
2023-04-27T01:15:07.804Z,1006.09
2023-04-27T01:16:07.788Z,1006.12
2023-04-27T01:17:07.855Z,1006.06
2023-04-27T01:18:07.776Z,1006.09
2023-04-27T01:19:07.811Z,1006.11
2023-04-27T01:20:07.724Z,1006.18
2023-04-27T01:21:08.738Z,1006.16
2023-04-27T01:22:07.731Z,1006.22
2023-04-27T01:23:07.708Z,1006.16
2023-04-27T01:24:07.734Z,1006.17
2023-04-27T01:25:07.726Z,1006.13
2023-04-27T01:26:07.717Z,1006.15
2023-04-27T01:27:07.678Z,1006.20
2023-04-27T01:28:07.648Z,1006.21
2023-04-27T01:29:07.640Z,1006.15
2023-04-27T01:30:07.625Z,1006.18
2023-04-27T01:31:07.734Z,1006.17
2023-04-27T01:32:07.617Z,1006.23
2023-04-27T01:33:07.631Z,1006.23
2023-04-27T01:34:07.620Z,1006.23
2023-04-27T01:35:07.587Z,1006.18
2023-04-27T01:36:07.575Z,1006.20
2023-04-27T01:37:07.558Z,1006.22
2023-04-27T01:38:07.542Z,1006.22
2023-04-27T01:39:07.575Z,1006.25
2023-04-27T01:40:07.557Z,1006.18
2023-04-27T01:41:07.526Z,1006.20
2023-04-27T01:42:08.485Z,1006.23
2023-04-27T01:43:08.367Z,1006.22
2023-04-27T01:44:07.504Z,1006.24
2023-04-27T01:45:07.476Z,1006.23
2023-04-27T01:46:07.527Z,1006.24
2023-04-27T01:47:07.467Z,1006.27
2023-04-27T01:48:07.522Z,1006.22
2023-04-27T01:49:07.438Z,1006.21
2023-04-27T01:50:07.416Z,1006.22
2023-04-27T01:51:08.420Z,1006.25
2023-04-27T01:52:07.421Z,1006.27
2023-04-27T01:53:07.380Z,1006.28
2023-04-27T01:54:07.375Z,1006.22
2023-04-27T01:55:07.374Z,1006.28
2023-04-27T01:56:07.377Z,1006.21
2023-04-27T01:57:07.358Z,1006.23
2023-04-27T01:58:07.335Z,1006.25
2023-04-27T01:59:07.339Z,1006.30
2023-04-27T02:00:07.303Z,1006.22
2023-04-27T02:01:07.350Z,1006.30
2023-04-27T02:02:07.385Z,1006.23
2023-04-27T02:03:07.406Z,1006.25
2023-04-27T02:04:07.342Z,1006.26
2023-04-27T02:05:07.270Z,1006.24
2023-04-27T02:06:07.297Z,1006.25
2023-04-27T02:07:07.236Z,1006.25
2023-04-27T02:08:07.249Z,1006.32
2023-04-27T02:09:07.271Z,1006.34
2023-04-27T02:10:07.232Z,1006.32
2023-04-27T02:11:07.220Z,1006.29
2023-04-27T02:12:07.204Z,1006.35
2023-04-27T02:13:07.174Z,1006.31
2023-04-27T02:14:07.163Z,1006.36
2023-04-27T02:15:07.161Z,1006.41
2023-04-27T02:16:07.201Z,1006.38
2023-04-27T02:17:07.166Z,1006.38
2023-04-27T02:18:07.187Z,1006.34
2023-04-27T02:19:07.166Z,1006.36
2023-04-27T02:20:07.099Z,1006.33
2023-04-27T02:21:08.114Z,1006.32
2023-04-27T02:22:07.103Z,1006.40
2023-04-27T02:23:07.063Z,1006.41
2023-04-27T02:24:07.044Z,1006.43
2023-04-27T02:25:07.059Z,1006.38
2023-04-27T02:26:07.035Z,1006.42
2023-04-27T02:27:08.062Z,1006.44
2023-04-27T02:28:07.153Z,1006.41
2023-04-27T02:29:07.098Z,1006.41
2023-04-27T02:30:06.966Z,1006.40
2023-04-27T02:31:06.990Z,1006.37
2023-04-27T02:32:07.008Z,1006.35
2023-04-27T02:33:07.018Z,1006.39
2023-04-27T02:34:06.962Z,1006.42
2023-04-27T02:35:06.931Z,1006.40
2023-04-27T02:36:07.944Z,1006.44
2023-04-27T02:37:06.949Z,1006.42
2023-04-27T02:38:06.892Z,1006.42
2023-04-27T02:39:06.922Z,1006.41
2023-04-27T02:40:06.902Z,1006.43
2023-04-27T02:41:06.871Z,1006.46
2023-04-27T02:42:07.931Z,1006.48
2023-04-27T02:43:06.878Z,1006.53
2023-04-27T02:44:06.855Z,1006.51
2023-04-27T02:45:06.842Z,1006.46
2023-04-27T02:46:07.874Z,1006.50
2023-04-27T02:47:07.865Z,1006.50
2023-04-27T02:48:07.818Z,1006.50
2023-04-27T02:49:06.806Z,1006.55
2023-04-27T02:50:07.790Z,1006.55
2023-04-27T02:51:06.754Z,1006.50
2023-04-27T02:52:06.801Z,1006.51
2023-04-27T02:53:06.768Z,1006.52
2023-04-27T02:54:06.739Z,1006.51
2023-04-27T02:55:06.729Z,1006.52
2023-04-27T02:56:06.712Z,1006.54
2023-04-27T02:57:06.726Z,1006.52
2023-04-27T02:58:06.685Z,1006.55
2023-04-27T02:59:06.697Z,1006.53
2023-04-27T03:00:07.683Z,1006.53
2023-04-27T03:01:06.712Z,1006.55
2023-04-27T03:02:06.727Z,1006.51
2023-04-27T03:03:06.798Z,1006.53
2023-04-27T03:04:07.818Z,1006.59
2023-04-27T03:05:07.656Z,1006.61
2023-04-27T03:06:07.607Z,1006.58
2023-04-27T03:07:06.597Z,1006.55
2023-04-27T03:08:06.593Z,1006.61
2023-04-27T03:09:07.659Z,1006.66
2023-04-27T03:10:06.558Z,1006.62
2023-04-27T03:11:06.591Z,1006.64
2023-04-27T03:12:06.526Z,1006.69
2023-04-27T03:13:06.542Z,1006.63
2023-04-27T03:14:06.554Z,1006.64
2023-04-27T03:15:07.505Z,1006.69
2023-04-27T03:16:06.557Z,1006.68
2023-04-27T03:17:06.493Z,1006.70
2023-04-27T03:18:06.599Z,1006.71
2023-04-27T03:19:07.464Z,1006.70
2023-04-27T03:20:06.465Z,1006.79
2023-04-27T03:21:06.426Z,1006.75
2023-04-27T03:22:06.408Z,1006.72
2023-04-27T03:23:06.432Z,1006.77
2023-04-27T03:24:07.412Z,1006.75
2023-04-27T03:25:06.389Z,1006.71
2023-04-27T03:26:07.383Z,1006.76
2023-04-27T03:27:06.363Z,1006.73
2023-04-27T03:28:06.354Z,1006.68
2023-04-27T03:29:06.350Z,1006.80
2023-04-27T03:30:06.343Z,1006.76
2023-04-27T03:31:07.318Z,1006.77
2023-04-27T03:32:06.509Z,1006.77
2023-04-27T03:33:06.322Z,1006.80
2023-04-27T03:34:06.295Z,1006.80
2023-04-27T03:35:06.293Z,1006.77
2023-04-27T03:36:06.266Z,1006.83
2023-04-27T03:37:06.337Z,1006.78
2023-04-27T03:38:07.287Z,1006.77
2023-04-27T03:39:07.238Z,1006.84
2023-04-27T03:40:06.236Z,1006.76
2023-04-27T03:41:06.227Z,1006.81
2023-04-27T03:42:07.216Z,1006.81
2023-04-27T03:43:06.194Z,1006.81
2023-04-27T03:44:06.232Z,1006.77
2023-04-27T03:45:06.167Z,1006.84
2023-04-27T03:46:06.175Z,1006.80
2023-04-27T03:47:07.164Z,1006.86
2023-04-27T03:48:06.219Z,1006.84
2023-04-27T03:49:06.152Z,1006.83
2023-04-27T03:50:06.131Z,1006.80
2023-04-27T03:51:06.098Z,1006.86
2023-04-27T03:52:06.102Z,1006.86
2023-04-27T03:53:06.100Z,1006.90
2023-04-27T03:54:06.064Z,1006.82
2023-04-27T03:55:07.303Z,1006.83
2023-04-27T03:56:06.062Z,1006.87
2023-04-27T03:57:06.047Z,1006.89
2023-04-27T03:58:06.039Z,1006.92
2023-04-27T03:59:06.016Z,1006.86
2023-04-27T04:00:06.022Z,1006.92
2023-04-27T04:01:06.985Z,1007.00
2023-04-27T04:02:06.046Z,1006.98
2023-04-27T04:03:06.283Z,1007.01
2023-04-27T04:04:06.115Z,1007.01
2023-04-27T04:05:06.126Z,1007.01
2023-04-27T04:06:06.957Z,1007.11
2023-04-27T04:07:06.933Z,1007.05
2023-04-27T04:08:06.923Z,1007.04
2023-04-27T04:09:05.902Z,1007.06
2023-04-27T04:10:06.922Z,1007.15
2023-04-27T04:11:05.882Z,1007.16
2023-04-27T04:12:05.883Z,1007.14
2023-04-27T04:13:05.913Z,1007.21
2023-04-27T04:14:05.859Z,1007.23
2023-04-27T04:15:05.866Z,1007.20
2023-04-27T04:16:05.880Z,1007.27
2023-04-27T04:17:06.815Z,1007.27
2023-04-27T04:18:05.891Z,1007.27
2023-04-27T04:19:05.830Z,1007.27
2023-04-27T04:20:05.801Z,1007.28
2023-04-27T04:21:05.790Z,1007.30
2023-04-27T04:22:06.781Z,1007.24
2023-04-27T04:23:06.781Z,1007.25
2023-04-27T04:24:06.740Z,1007.25
2023-04-27T04:25:05.729Z,1007.27
2023-04-27T04:26:06.723Z,1007.27
2023-04-27T04:27:05.721Z,1007.30
2023-04-27T04:28:05.685Z,1007.27
2023-04-27T04:29:05.701Z,1007.28
2023-04-27T04:30:05.673Z,1007.24
2023-04-27T04:31:05.796Z,1007.23
2023-04-27T04:32:05.675Z,1007.27
2023-04-27T04:33:05.731Z,1007.24
2023-04-27T04:34:06.643Z,1007.30
2023-04-27T04:35:05.636Z,1007.30
2023-04-27T04:36:05.630Z,1007.26
2023-04-27T04:37:05.638Z,1007.26
2023-04-27T04:38:05.613Z,1007.28
2023-04-27T04:39:05.579Z,1007.23
2023-04-27T04:40:06.570Z,1007.23
2023-04-27T04:41:06.643Z,1007.24
2023-04-27T04:42:05.565Z,1007.25
2023-04-27T04:43:05.562Z,1007.23
2023-04-27T04:44:06.509Z,1007.26
2023-04-27T04:45:06.516Z,1007.26
2023-04-27T04:46:05.543Z,1007.22
2023-04-27T04:47:05.505Z,1007.28
2023-04-27T04:48:05.615Z,1007.23
2023-04-27T04:49:05.492Z,1007.23
2023-04-27T04:50:05.475Z,1007.22
2023-04-27T04:51:06.476Z,1007.23
2023-04-27T04:52:05.442Z,1007.20
2023-04-27T04:53:05.444Z,1007.25
2023-04-27T04:54:06.398Z,1007.21
2023-04-27T04:55:05.405Z,1007.20
2023-04-27T04:56:05.418Z,1007.23
2023-04-27T04:57:06.419Z,1007.19
2023-04-27T04:58:05.416Z,1007.27
2023-04-27T04:59:05.375Z,1007.20
2023-04-27T05:00:06.429Z,1007.20
2023-04-27T05:01:05.371Z,1007.21
2023-04-27T05:02:06.371Z,1007.21
2023-04-27T05:03:05.358Z,1007.31
2023-04-27T05:04:05.659Z,1007.33
2023-04-27T05:05:05.311Z,1007.34
2023-04-27T05:06:05.307Z,1007.31
2023-04-27T05:07:06.282Z,1007.30
2023-04-27T05:08:05.280Z,1007.30
2023-04-27T05:09:05.258Z,1007.30
2023-04-27T05:10:06.278Z,1007.29
2023-04-27T05:11:05.247Z,1007.26
2023-04-27T05:12:05.260Z,1007.34
2023-04-27T05:13:07.163Z,1007.31
2023-04-27T05:14:05.238Z,1007.26
2023-04-27T05:15:05.183Z,1007.22
2023-04-27T05:16:05.247Z,1007.28
2023-04-27T05:17:05.165Z,1007.24
2023-04-27T05:18:06.203Z,1007.27
2023-04-27T05:19:06.171Z,1007.22
2023-04-27T05:20:05.170Z,1007.22
2023-04-27T05:21:05.149Z,1007.26
2023-04-27T05:22:05.129Z,1007.26
2023-04-27T05:23:05.129Z,1007.20
2023-04-27T05:24:05.128Z,1007.20
2023-04-27T05:25:05.094Z,1007.21
2023-04-27T05:26:05.074Z,1007.25
2023-04-27T05:27:06.090Z,1007.25
2023-04-27T05:28:05.060Z,1007.28
2023-04-27T05:29:05.056Z,1007.22
2023-04-27T05:30:05.055Z,1007.24
2023-04-27T05:31:05.033Z,1007.29
2023-04-27T05:32:06.165Z,1007.26
2023-04-27T05:33:05.060Z,1007.29
2023-04-27T05:34:04.990Z,1007.24
2023-04-27T05:35:04.995Z,1007.24
2023-04-27T05:36:04.962Z,1007.28
2023-04-27T05:37:04.976Z,1007.36
2023-04-27T05:38:04.943Z,1007.33
2023-04-27T05:39:04.954Z,1007.37
2023-04-27T05:40:04.944Z,1007.31
2023-04-27T05:41:04.906Z,1007.33
2023-04-27T05:42:04.937Z,1007.34
2023-04-27T05:43:04.928Z,1007.33
2023-04-27T05:44:04.881Z,1007.36
2023-04-27T05:45:04.868Z,1007.32
2023-04-27T05:46:04.967Z,1007.30
2023-04-27T05:47:04.827Z,1007.33
2023-04-27T05:48:04.856Z,1007.32
2023-04-27T05:49:04.880Z,1007.28
2023-04-27T05:50:04.805Z,1007.25
2023-04-27T05:51:04.842Z,1007.30
2023-04-27T05:52:04.818Z,1007.29
2023-04-27T05:53:04.776Z,1007.29
2023-04-27T05:54:04.774Z,1007.32
2023-04-27T05:55:05.743Z,1007.21
2023-04-27T05:56:04.905Z,1007.30
2023-04-27T05:57:04.813Z,1007.21
2023-04-27T05:58:08.629Z,1007.24
2023-04-27T05:59:04.727Z,1007.25
2023-04-27T06:00:04.716Z,1007.25
2023-04-27T06:01:04.708Z,1007.23
2023-04-27T06:02:04.734Z,1007.33
2023-04-27T06:03:04.794Z,1007.30
2023-04-27T06:04:04.742Z,1007.29
2023-04-27T06:05:05.724Z,1007.35
2023-04-27T06:06:04.638Z,1007.37
2023-04-27T06:07:05.641Z,1007.33
2023-04-27T06:08:04.623Z,1007.33
2023-04-27T06:09:05.606Z,1007.33
2023-04-27T06:10:04.587Z,1007.37
2023-04-27T06:11:04.565Z,1007.40
2023-04-27T06:12:04.615Z,1007.40
2023-04-27T06:13:04.583Z,1007.41
2023-04-27T06:14:05.592Z,1007.37
2023-04-27T06:15:04.564Z,1007.38
2023-04-27T06:16:04.538Z,1007.40
2023-04-27T06:17:05.521Z,1007.42
2023-04-27T06:18:04.564Z,1007.42
2023-04-27T06:19:04.484Z,1007.43
2023-04-27T06:20:04.565Z,1007.48
2023-04-27T06:21:04.509Z,1007.49
2023-04-27T06:22:04.509Z,1007.44
2023-04-27T06:23:04.443Z,1007.40
2023-04-27T06:24:04.433Z,1007.46
2023-04-27T06:25:12.053Z,1007.49
2023-04-27T06:26:04.441Z,1007.45
2023-04-27T06:27:04.411Z,1007.43
2023-04-27T06:28:04.409Z,1007.47
2023-04-27T06:29:04.400Z,1007.42
2023-04-27T06:30:04.367Z,1007.46
2023-04-27T06:31:05.490Z,1007.48
2023-04-27T06:32:05.377Z,1007.52
2023-04-27T06:33:04.396Z,1007.53
2023-04-27T06:34:04.324Z,1007.51
2023-04-27T06:35:05.348Z,1007.52
2023-04-27T06:36:04.306Z,1007.58
2023-04-27T06:37:04.284Z,1007.52
2023-04-27T06:39:04.252Z,1007.57
2023-04-27T06:40:04.281Z,1007.54
2023-04-27T06:41:04.270Z,1007.57
2023-04-27T06:42:04.230Z,1007.60
2023-04-27T06:43:04.222Z,1007.58
2023-04-27T06:44:04.231Z,1007.57
2023-04-27T06:45:04.231Z,1007.59
2023-04-27T06:46:04.222Z,1007.61
2023-04-27T06:47:04.205Z,1007.62
2023-04-27T06:48:04.189Z,1007.65
2023-04-27T06:49:04.196Z,1007.63
2023-04-27T06:50:04.164Z,1007.61
2023-04-27T06:51:04.150Z,1007.63
2023-04-27T06:52:04.125Z,1007.67
2023-04-27T06:53:04.188Z,1007.59
2023-04-27T06:54:05.122Z,1007.63
2023-04-27T06:55:04.123Z,1007.57
2023-04-27T06:56:04.096Z,1007.58
2023-04-27T06:57:04.124Z,1007.57
2023-04-27T06:58:04.065Z,1007.57
2023-04-27T06:59:04.083Z,1007.61
2023-04-27T07:00:04.091Z,1007.56
2023-04-27T07:01:04.088Z,1007.61
2023-04-27T07:02:05.034Z,1007.62
2023-04-27T07:03:05.079Z,1007.63
2023-04-27T07:04:04.093Z,1007.68
2023-04-27T07:05:04.049Z,1007.61
2023-04-27T07:06:03.977Z,1007.67
2023-04-27T07:07:03.993Z,1007.74
2023-04-27T07:08:07.771Z,1007.72
2023-04-27T07:09:10.419Z,1007.71
2023-04-27T07:10:04.977Z,1007.70
2023-04-27T07:11:03.961Z,1007.68
2023-04-27T07:12:04.056Z,1007.71
2023-04-27T07:13:03.899Z,1007.77
2023-04-27T07:14:03.884Z,1007.76
2023-04-27T07:15:03.931Z,1007.76
2023-04-27T07:16:04.012Z,1007.75
2023-04-27T07:17:03.892Z,1007.70
2023-04-27T07:18:03.888Z,1007.69
2023-04-27T07:19:03.872Z,1007.64
2023-04-27T07:20:03.825Z,1007.71
2023-04-27T07:21:03.821Z,1007.75
2023-04-27T07:22:03.872Z,1007.82
2023-04-27T07:23:03.779Z,1007.83
2023-04-27T07:24:03.779Z,1007.89
2023-04-27T07:25:03.752Z,1007.83
2023-04-27T07:26:03.754Z,1007.86
2023-04-27T07:27:03.747Z,1007.85
2023-04-27T07:28:04.783Z,1007.84
2023-04-27T07:29:14.633Z,1007.78
2023-04-27T07:30:04.736Z,1007.85
2023-04-27T07:31:03.710Z,1007.79
2023-04-27T07:32:03.747Z,1007.86
2023-04-27T07:33:03.781Z,1007.84
2023-04-27T07:34:03.696Z,1007.88
2023-04-27T07:35:03.665Z,1007.85
2023-04-27T07:36:03.792Z,1007.88
2023-04-27T07:37:03.660Z,1007.86
2023-04-27T07:38:03.655Z,1007.84
2023-04-27T07:39:03.622Z,1007.83
2023-04-27T07:40:03.589Z,1007.87
2023-04-27T07:41:03.586Z,1007.86
2023-04-27T07:42:04.581Z,1007.90
2023-04-27T07:43:03.555Z,1007.88
2023-04-27T07:44:04.560Z,1007.90
2023-04-27T07:45:03.551Z,1007.88
2023-04-27T07:46:03.553Z,1007.89
2023-04-27T07:47:03.531Z,1007.92
2023-04-27T07:48:03.668Z,1007.92
2023-04-27T07:49:03.528Z,1007.91
2023-04-27T07:50:04.492Z,1007.94
2023-04-27T07:51:04.469Z,1007.95
2023-04-27T07:52:03.467Z,1007.97
2023-04-27T07:53:03.473Z,1007.95
2023-04-27T07:54:03.464Z,1008.02
2023-04-27T07:55:03.430Z,1008.06
2023-04-27T07:56:03.476Z,1007.97
2023-04-27T07:57:03.448Z,1008.01
2023-04-27T07:58:03.435Z,1007.98
2023-04-27T07:59:03.408Z,1008.02
2023-04-27T08:00:03.382Z,1007.97
2023-04-27T08:01:03.372Z,1007.98
2023-04-27T08:02:11.145Z,1008.00
2023-04-27T08:03:04.533Z,1008.03
2023-04-27T08:04:03.711Z,1008.01
2023-04-27T08:05:03.868Z,1008.07
2023-04-27T08:06:03.765Z,1007.98
2023-04-27T08:07:03.608Z,1008.02
2023-04-27T08:08:03.433Z,1008.05
2023-04-27T08:09:04.299Z,1008.05
2023-04-27T08:10:04.256Z,1008.10
2023-04-27T08:11:03.289Z,1008.01
2023-04-27T08:12:04.230Z,1008.07
2023-04-27T08:13:03.261Z,1008.07
2023-04-27T08:14:03.237Z,1008.08
2023-04-27T08:15:03.211Z,1008.05
2023-04-27T08:16:03.195Z,1007.99
2023-04-27T08:17:03.358Z,1008.02
2023-04-27T08:18:03.233Z,1008.01
2023-04-27T08:19:03.219Z,1008.03
2023-04-27T08:20:03.182Z,1008.04
2023-04-27T08:21:03.146Z,1008.02
2023-04-27T08:22:03.142Z,1008.04
2023-04-27T08:23:03.135Z,1008.04
2023-04-27T08:24:04.138Z,1008.05
2023-04-27T08:25:03.089Z,1008.03
2023-04-27T08:26:03.119Z,1008.01
2023-04-27T08:27:03.118Z,1008.05
2023-04-27T08:28:03.065Z,1008.04
2023-04-27T08:29:11.662Z,1008.02
2023-04-27T08:30:04.066Z,1008.05
2023-04-27T08:31:04.095Z,1008.03
2023-04-27T08:32:03.040Z,1007.96
2023-04-27T08:33:03.040Z,1007.94
2023-04-27T08:34:03.995Z,1007.91
2023-04-27T08:35:03.012Z,1007.92
2023-04-27T08:36:04.018Z,1007.93
2023-04-27T08:37:02.978Z,1007.95
2023-04-27T08:38:03.002Z,1007.93
2023-04-27T08:39:03.994Z,1007.94
2023-04-27T08:40:02.985Z,1007.89
2023-04-27T08:41:18.104Z,1007.98
2023-04-27T08:42:03.924Z,1007.88
2023-04-27T08:43:03.904Z,1007.86
2023-04-27T08:44:02.894Z,1007.83
2023-04-27T08:45:03.904Z,1007.85
2023-04-27T08:46:02.959Z,1007.87
2023-04-27T08:47:03.860Z,1007.87
2023-04-27T08:48:02.938Z,1007.89
2023-04-27T08:49:02.867Z,1007.85
2023-04-27T08:50:02.835Z,1007.84
2023-04-27T08:51:02.844Z,1007.82
2023-04-27T08:52:02.851Z,1007.80
2023-04-27T08:53:02.839Z,1007.81
2023-04-27T08:54:02.828Z,1007.78
2023-04-27T08:55:02.800Z,1007.80
2023-04-27T08:56:02.770Z,1007.89
2023-04-27T08:57:02.790Z,1007.82
2023-04-27T08:58:02.777Z,1007.80
2023-04-27T08:59:02.743Z,1007.82
2023-04-27T09:00:02.712Z,1007.78
2023-04-27T09:01:02.704Z,1007.78
2023-04-27T09:02:02.749Z,1007.77
2023-04-27T09:03:02.896Z,1007.81
2023-04-27T09:04:02.957Z,1007.79
2023-04-27T09:05:02.846Z,1007.80
2023-04-27T09:06:05.854Z,1007.76
2023-04-27T09:07:02.652Z,1007.75
2023-04-27T09:08:02.790Z,1007.73
2023-04-27T09:09:02.650Z,1007.74
2023-04-27T09:10:02.637Z,1007.73
2023-04-27T09:11:02.596Z,1007.73
2023-04-27T09:12:02.625Z,1007.79
2023-04-27T09:13:02.586Z,1007.73
2023-04-27T09:14:03.593Z,1007.79
2023-04-27T09:15:02.589Z,1007.74
2023-04-27T09:16:02.598Z,1007.71
2023-04-27T09:17:02.550Z,1007.79
2023-04-27T09:18:02.643Z,1007.78
2023-04-27T09:19:02.589Z,1007.79
2023-04-27T09:20:03.526Z,1007.79
2023-04-27T09:21:02.518Z,1007.75
2023-04-27T09:22:02.483Z,1007.71
2023-04-27T09:23:02.474Z,1007.72
2023-04-27T09:24:02.482Z,1007.72
2023-04-27T09:25:02.441Z,1007.69
2023-04-27T09:26:02.445Z,1007.72
2023-04-27T09:27:02.424Z,1007.73
2023-04-27T09:28:02.433Z,1007.73
2023-04-27T09:29:02.406Z,1007.71
2023-04-27T09:30:02.455Z,1007.73
2023-04-27T09:31:02.434Z,1007.66
2023-04-27T09:32:02.505Z,1007.67
2023-04-27T09:33:02.427Z,1007.74
2023-04-27T09:34:02.358Z,1007.73
2023-04-27T09:35:02.369Z,1007.72
2023-04-27T09:36:02.316Z,1007.68
2023-04-27T09:37:02.333Z,1007.67
2023-04-27T09:38:02.364Z,1007.67
2023-04-27T09:39:02.308Z,1007.68
2023-04-27T09:40:02.545Z,1007.70
2023-04-27T09:41:02.308Z,1007.68
2023-04-27T09:42:03.278Z,1007.70
2023-04-27T09:43:02.269Z,1007.65
2023-04-27T09:44:02.260Z,1007.66
2023-04-27T09:45:02.236Z,1007.62
2023-04-27T09:46:02.289Z,1007.69
2023-04-27T09:47:02.233Z,1007.65
2023-04-27T09:48:03.251Z,1007.66
2023-04-27T09:49:02.195Z,1007.61
2023-04-27T09:50:02.273Z,1007.59
2023-04-27T09:51:02.175Z,1007.62
2023-04-27T09:52:03.175Z,1007.58
2023-04-27T09:53:02.166Z,1007.59
2023-04-27T09:54:02.129Z,1007.56
2023-04-27T09:55:02.120Z,1007.54
2023-04-27T09:56:02.142Z,1007.60
2023-04-27T09:57:02.109Z,1007.66
2023-04-27T09:58:02.093Z,1007.64
2023-04-27T09:59:02.120Z,1007.60
2023-04-27T10:00:02.060Z,1007.63
2023-04-27T10:01:02.102Z,1007.59
2023-04-27T10:02:09.899Z,1007.61
2023-04-27T10:03:03.100Z,1007.59
2023-04-27T10:04:02.176Z,1007.60
2023-04-27T10:05:02.047Z,1007.65
2023-04-27T10:06:03.012Z,1007.55
2023-04-27T10:07:02.000Z,1007.59
2023-04-27T10:08:01.972Z,1007.55
2023-04-27T10:09:01.954Z,1007.58
2023-04-27T10:10:02.966Z,1007.58
2023-04-27T10:11:02.024Z,1007.54
2023-04-27T10:12:01.955Z,1007.56
2023-04-27T10:13:01.964Z,1007.53
2023-04-27T10:14:01.937Z,1007.59
2023-04-27T10:15:01.909Z,1007.53
2023-04-27T10:16:01.897Z,1007.56
2023-04-27T10:17:02.024Z,1007.51
2023-04-27T10:18:02.904Z,1007.53
2023-04-27T10:19:01.895Z,1007.46
2023-04-27T10:20:02.837Z,1007.52
2023-04-27T10:21:01.833Z,1007.47
2023-04-27T10:22:01.853Z,1007.44
2023-04-27T10:23:02.834Z,1007.52
2023-04-27T10:24:01.805Z,1007.52
2023-04-27T10:25:01.800Z,1007.47
2023-04-27T10:26:01.793Z,1007.51
2023-04-27T10:27:01.775Z,1007.53
2023-04-27T10:28:01.811Z,1007.54
2023-04-27T10:29:01.795Z,1007.57
2023-04-27T10:30:01.734Z,1007.53
2023-04-27T10:31:01.810Z,1007.59
2023-04-27T10:32:01.802Z,1007.58
2023-04-27T10:33:02.743Z,1007.59
2023-04-27T10:34:01.686Z,1007.59
2023-04-27T10:35:01.678Z,1007.58
2023-04-27T10:36:01.684Z,1007.58
2023-04-27T10:37:01.657Z,1007.63
2023-04-27T10:38:01.649Z,1007.60
2023-04-27T10:39:02.669Z,1007.58
2023-04-27T10:40:01.626Z,1007.58
2023-04-27T10:41:01.735Z,1007.62
2023-04-27T10:42:02.628Z,1007.57
2023-04-27T10:43:01.624Z,1007.60
2023-04-27T10:44:01.672Z,1007.59
2023-04-27T10:45:01.570Z,1007.57
2023-04-27T10:46:01.659Z,1007.59
2023-04-27T10:47:01.635Z,1007.58
2023-04-27T10:48:01.776Z,1007.56
2023-04-27T10:49:02.559Z,1007.59
2023-04-27T10:50:01.516Z,1007.57
2023-04-27T10:51:01.521Z,1007.59
2023-04-27T10:52:01.495Z,1007.50
2023-04-27T10:53:01.494Z,1007.48
2023-04-27T10:54:01.522Z,1007.51
2023-04-27T10:55:01.465Z,1007.49
2023-04-27T10:56:01.475Z,1007.55
2023-04-27T10:57:01.449Z,1007.50
2023-04-27T10:58:01.438Z,1007.50
2023-04-27T10:59:01.438Z,1007.47
2023-04-27T11:00:01.530Z,1007.49
2023-04-27T11:01:01.433Z,1007.59
2023-04-27T11:02:02.446Z,1007.47
2023-04-27T11:03:01.477Z,1007.48
2023-04-27T11:04:01.469Z,1007.51
2023-04-27T11:05:01.547Z,1007.59
2023-04-27T11:06:01.332Z,1007.55
2023-04-27T11:07:01.329Z,1007.54
2023-04-27T11:08:01.326Z,1007.63
2023-04-27T11:09:02.398Z,1007.57
2023-04-27T11:10:01.333Z,1007.55
2023-04-27T11:11:01.312Z,1007.55
2023-04-27T11:12:01.301Z,1007.56
2023-04-27T11:13:01.293Z,1007.58
2023-04-27T11:14:01.267Z,1007.59
2023-04-27T11:15:01.266Z,1007.55
2023-04-27T11:16:01.335Z,1007.52
2023-04-27T11:17:01.211Z,1007.53
2023-04-27T11:18:01.252Z,1007.56
2023-04-27T11:19:02.226Z,1007.52
2023-04-27T11:20:01.233Z,1007.51
2023-04-27T11:21:01.189Z,1007.52
2023-04-27T11:22:01.164Z,1007.50
2023-04-27T11:23:01.156Z,1007.56
2023-04-27T11:24:01.150Z,1007.54
2023-04-27T11:25:01.213Z,1007.52
2023-04-27T11:26:01.150Z,1007.48
2023-04-27T11:27:02.135Z,1007.55
2023-04-27T11:28:01.146Z,1007.58
2023-04-27T11:29:01.091Z,1007.56
2023-04-27T11:30:01.062Z,1007.58
2023-04-27T11:31:01.141Z,1007.52
2023-04-27T11:32:01.128Z,1007.51
2023-04-27T11:33:01.102Z,1007.54
2023-04-27T11:34:01.065Z,1007.51
2023-04-27T11:35:02.016Z,1007.44
2023-04-27T11:36:01.035Z,1007.47
2023-04-27T11:38:01.004Z,1007.49
2023-04-27T11:39:01.062Z,1007.49
2023-04-27T11:40:00.959Z,1007.51
2023-04-27T11:41:01.944Z,1007.52
2023-04-27T11:42:00.940Z,1007.49
2023-04-27T11:43:00.938Z,1007.50
2023-04-27T11:44:01.940Z,1007.52
2023-04-27T11:45:00.944Z,1007.56
2023-04-27T11:46:00.924Z,1007.55
2023-04-27T11:47:00.994Z,1007.54
2023-04-27T11:48:00.992Z,1007.53
2023-04-27T11:49:00.899Z,1007.46
2023-04-27T11:50:00.912Z,1007.53
2023-04-27T11:51:00.866Z,1007.51
2023-04-27T11:52:00.824Z,1007.52
2023-04-27T11:53:00.825Z,1007.48
2023-04-27T11:54:00.821Z,1007.52
2023-04-27T11:55:00.791Z,1007.53
2023-04-27T11:56:00.813Z,1007.53
2023-04-27T11:57:01.821Z,1007.55
2023-04-27T11:58:00.760Z,1007.60
2023-04-27T11:59:00.752Z,1007.61
2023-04-27T12:00:01.761Z,1007.54
2023-04-27T12:01:00.771Z,1007.60
2023-04-27T12:02:01.786Z,1007.60
2023-04-27T12:03:00.921Z,1007.53
2023-04-27T12:04:02.517Z,1007.56
2023-04-27T12:05:01.082Z,1007.60
2023-04-27T12:07:00.683Z,1007.62
2023-04-27T12:08:00.693Z,1007.56